createdAt,value
2023-03-18T00:00:48.555Z,21.23
2023-03-18T00:01:48.719Z,21.18
2023-03-18T00:02:48.738Z,21.26
2023-03-18T00:03:48.828Z,21.21
2023-03-18T00:04:48.834Z,21.27
2023-03-18T00:05:48.877Z,21.27
2023-03-18T00:06:48.941Z,21.32
2023-03-18T00:07:49.022Z,21.24
2023-03-18T00:08:49.112Z,21.32
2023-03-18T00:09:49.153Z,21.29
2023-03-18T00:10:49.209Z,21.24
2023-03-18T00:11:49.304Z,21.29
2023-03-18T00:12:49.304Z,21.30
2023-03-18T00:13:49.404Z,21.24
2023-03-18T00:14:49.416Z,21.22
2023-03-18T00:15:49.466Z,21.27
2023-03-18T00:16:49.562Z,21.24
2023-03-18T00:17:49.623Z,21.27
2023-03-18T00:18:49.679Z,21.30
2023-03-18T00:19:49.719Z,21.27
2023-03-18T00:20:49.756Z,21.29
2023-03-18T00:21:49.832Z,21.30
2023-03-18T00:22:49.965Z,21.29
2023-03-18T00:23:49.972Z,21.32
2023-03-18T00:24:50.024Z,21.35
2023-03-18T00:25:50.120Z,21.29
2023-03-18T00:26:50.171Z,21.33
2023-03-18T00:27:50.233Z,21.33
2023-03-18T00:28:50.330Z,21.29
2023-03-18T00:29:50.335Z,21.33
2023-03-18T00:30:50.404Z,21.29
2023-03-18T00:31:50.486Z,21.33
2023-03-18T00:32:50.558Z,21.35
2023-03-18T00:33:50.594Z,21.33
2023-03-18T00:34:50.690Z,21.33
2023-03-18T00:35:50.763Z,21.33
2023-03-18T00:36:50.792Z,21.36
2023-03-18T00:37:50.864Z,21.37
2023-03-18T00:38:50.930Z,21.30
2023-03-18T00:39:50.989Z,21.32
2023-03-18T00:40:51.034Z,21.35
2023-03-18T00:41:51.098Z,21.33
2023-03-18T00:42:53.354Z,21.36
2023-03-18T00:43:51.156Z,21.30
2023-03-18T00:44:51.109Z,21.35
2023-03-18T00:45:51.156Z,21.36
2023-03-18T00:46:51.224Z,21.37
2023-03-18T00:47:51.139Z,21.41
2023-03-18T00:48:51.113Z,21.36
2023-03-18T00:49:51.102Z,21.37
2023-03-18T00:50:51.090Z,21.29
2023-03-18T00:51:51.062Z,21.36
2023-03-18T00:52:51.077Z,21.32
2023-03-18T00:53:51.057Z,21.36
2023-03-18T00:54:51.046Z,21.35
2023-03-18T00:55:51.060Z,21.33
2023-03-18T00:56:51.051Z,21.35
2023-03-18T00:57:51.039Z,21.33
2023-03-18T00:58:51.056Z,21.36
2023-03-18T00:59:51.039Z,21.36
2023-03-18T01:00:51.013Z,21.35
2023-03-18T01:01:51.055Z,21.37
2023-03-18T01:02:51.014Z,21.37
2023-03-18T01:03:50.985Z,21.43
2023-03-18T01:04:51.001Z,21.37
2023-03-18T01:05:51.007Z,21.36
2023-03-18T01:06:50.955Z,21.33
2023-03-18T01:07:50.991Z,21.35
2023-03-18T01:08:50.957Z,21.32
2023-03-18T01:09:50.992Z,21.37
2023-03-18T01:10:50.956Z,21.41
2023-03-18T01:11:50.955Z,21.31
2023-03-18T01:12:50.977Z,21.36
2023-03-18T01:13:51.019Z,21.39
2023-03-18T01:14:50.989Z,21.39
2023-03-18T01:15:50.975Z,21.33
2023-03-18T01:16:51.000Z,21.35
2023-03-18T01:17:51.011Z,21.35
2023-03-18T01:18:51.010Z,21.39
2023-03-18T01:19:51.025Z,21.35
2023-03-18T01:20:51.027Z,21.39
2023-03-18T01:21:51.042Z,21.35
2023-03-18T01:22:51.045Z,21.35
2023-03-18T01:23:51.048Z,21.36
2023-03-18T01:24:51.047Z,21.33
2023-03-18T01:25:51.102Z,21.33
2023-03-18T01:26:51.063Z,21.30
2023-03-18T01:27:51.086Z,21.32
2023-03-18T01:28:51.072Z,21.33
2023-03-18T01:29:51.130Z,21.36
2023-03-18T01:30:51.085Z,21.41
2023-03-18T01:31:51.200Z,21.37
2023-03-18T01:32:51.164Z,21.41
2023-03-18T01:33:51.116Z,21.45
2023-03-18T01:34:51.156Z,21.40
2023-03-18T01:35:51.193Z,21.39
2023-03-18T01:36:51.161Z,21.41
2023-03-18T01:37:51.219Z,21.39
2023-03-18T01:38:51.267Z,21.39
2023-03-18T01:39:51.289Z,21.41
2023-03-18T01:40:51.343Z,21.39
2023-03-18T01:41:51.375Z,21.39
2023-03-18T01:42:51.402Z,21.39
2023-03-18T01:43:51.420Z,21.39
2023-03-18T01:44:51.480Z,21.33
2023-03-18T01:45:51.591Z,21.47
2023-03-18T01:46:51.614Z,21.33
2023-03-18T01:47:51.668Z,21.41
2023-03-18T01:48:51.705Z,21.36
2023-03-18T01:49:51.767Z,21.41
2023-03-18T01:50:51.849Z,21.41
2023-03-18T01:51:51.904Z,21.45
2023-03-18T01:52:51.957Z,21.43
2023-03-18T01:53:52.016Z,21.42
2023-03-18T01:54:52.068Z,21.37
2023-03-18T01:55:52.158Z,21.44
2023-03-18T01:56:52.203Z,21.39
2023-03-18T01:57:52.272Z,21.34
2023-03-18T01:58:52.357Z,21.37
2023-03-18T01:59:52.348Z,21.39
2023-03-18T02:00:52.368Z,21.42
2023-03-18T02:01:52.326Z,21.37
2023-03-18T02:02:52.368Z,21.45
2023-03-18T02:03:52.401Z,21.45
2023-03-18T02:04:52.386Z,21.37
2023-03-18T02:05:52.395Z,21.45
2023-03-18T02:06:52.405Z,21.41
2023-03-18T02:07:52.419Z,21.41
2023-03-18T02:08:52.426Z,21.36
2023-03-18T02:09:52.416Z,21.40
2023-03-18T02:10:52.429Z,21.37
2023-03-18T02:11:52.440Z,21.41
2023-03-18T02:12:52.464Z,21.42
2023-03-18T02:13:52.461Z,21.40
2023-03-18T02:14:52.466Z,21.43
2023-03-18T02:15:52.488Z,21.45
2023-03-18T02:16:52.507Z,21.43
2023-03-18T02:17:52.510Z,21.46
2023-03-18T02:18:52.543Z,21.37
2023-03-18T02:19:52.591Z,21.37
2023-03-18T02:20:52.616Z,21.48
2023-03-18T02:21:52.670Z,21.45
2023-03-18T02:22:52.723Z,21.43
2023-03-18T02:23:52.795Z,21.39
2023-03-18T02:24:52.867Z,21.39
2023-03-18T02:25:52.916Z,21.42
2023-03-18T02:26:52.981Z,21.41
2023-03-18T02:27:53.023Z,21.43
2023-03-18T02:28:53.084Z,21.43
2023-03-18T02:29:53.185Z,21.43
2023-03-18T02:30:53.259Z,21.39
2023-03-18T02:31:53.314Z,21.44
2023-03-18T02:32:53.437Z,21.37
2023-03-18T02:33:53.412Z,21.42
2023-03-18T02:34:53.466Z,21.36
2023-03-18T02:35:53.638Z,21.43
2023-03-18T02:36:53.598Z,21.37
2023-03-18T02:37:53.675Z,21.46
2023-03-18T02:38:53.699Z,21.42
2023-03-18T02:39:53.761Z,21.39
2023-03-18T02:40:53.820Z,21.40
2023-03-18T02:41:53.872Z,21.46
2023-03-18T02:42:53.977Z,21.48
2023-03-18T02:43:53.987Z,21.37
2023-03-18T02:44:54.055Z,21.40
2023-03-18T02:45:54.110Z,21.43
2023-03-18T02:46:54.139Z,21.39
2023-03-18T02:47:54.210Z,21.40
2023-03-18T02:48:54.262Z,21.42
2023-03-18T02:49:54.334Z,21.45
2023-03-18T02:50:54.373Z,21.40
2023-03-18T02:51:54.484Z,21.37
2023-03-18T02:52:54.571Z,21.40
2023-03-18T02:53:54.585Z,21.39
2023-03-18T02:54:54.646Z,21.39
2023-03-18T02:55:54.704Z,21.40
2023-03-18T02:56:54.728Z,21.41
2023-03-18T02:57:54.827Z,21.39
2023-03-18T02:58:54.872Z,21.39
2023-03-18T02:59:54.903Z,21.40
2023-03-18T03:00:54.958Z,21.40
2023-03-18T03:01:55.016Z,21.40
2023-03-18T03:02:55.146Z,21.42
2023-03-18T03:03:55.098Z,21.45
2023-03-18T03:04:55.119Z,21.45
2023-03-18T03:05:55.211Z,21.46
2023-03-18T03:06:55.274Z,21.38
2023-03-18T03:07:55.346Z,21.37
2023-03-18T03:08:55.389Z,21.39
2023-03-18T03:09:55.471Z,21.42
2023-03-18T03:10:55.514Z,21.46
2023-03-18T03:11:55.587Z,21.37
2023-03-18T03:13:55.653Z,21.37
2023-03-18T03:14:55.752Z,21.42
2023-03-18T03:15:55.803Z,21.43
2023-03-18T03:16:55.802Z,21.42
2023-03-18T03:17:55.875Z,21.42
2023-03-18T03:18:55.905Z,21.36
2023-03-18T03:19:55.908Z,21.40
2023-03-18T03:20:55.917Z,21.43
2023-03-18T03:21:56.048Z,21.41
2023-03-18T03:22:55.949Z,21.45
2023-03-18T03:23:55.960Z,21.39
2023-03-18T03:24:55.992Z,21.40
2023-03-18T03:25:56.020Z,21.42
2023-03-18T03:26:56.052Z,21.37
2023-03-18T03:27:56.110Z,21.31
2023-03-18T03:28:56.148Z,21.40
2023-03-18T03:29:56.204Z,21.36
2023-03-18T03:30:56.271Z,21.31
2023-03-18T03:31:56.316Z,21.34
2023-03-18T03:32:56.423Z,21.42
2023-03-18T03:33:56.391Z,21.41
2023-03-18T03:34:56.452Z,21.42
2023-03-18T03:35:56.504Z,21.36
2023-03-18T03:36:56.542Z,21.35
2023-03-18T03:37:56.628Z,21.40
2023-03-18T03:38:56.646Z,21.39
2023-03-18T03:39:56.698Z,21.39
2023-03-18T03:40:56.729Z,21.38
2023-03-18T03:41:56.742Z,21.34
2023-03-18T03:42:56.797Z,21.38
2023-03-18T03:43:56.834Z,21.45
2023-03-18T03:44:56.875Z,21.40
2023-03-18T03:45:56.916Z,21.38
2023-03-18T03:46:56.979Z,21.45
2023-03-18T03:47:57.031Z,21.34
2023-03-18T03:48:57.095Z,21.36
2023-03-18T03:49:57.138Z,21.37
2023-03-18T03:50:57.231Z,21.35
2023-03-18T03:51:57.352Z,21.38
2023-03-18T03:52:57.433Z,21.32
2023-03-18T03:53:57.395Z,21.34
2023-03-18T03:54:57.402Z,21.36
2023-03-18T03:55:59.244Z,21.37
2023-03-18T03:56:57.506Z,21.43
2023-03-18T03:57:57.571Z,21.44
2023-03-18T03:58:57.628Z,21.43
2023-03-18T03:59:57.691Z,21.40
2023-03-18T04:00:57.731Z,21.40
2023-03-18T04:01:57.808Z,21.40
2023-03-18T04:02:57.898Z,21.38
2023-03-18T04:03:57.925Z,21.34
2023-03-18T04:04:57.927Z,21.32
2023-03-18T04:05:58.000Z,21.37
2023-03-18T04:06:58.055Z,21.32
2023-03-18T04:07:58.131Z,21.34
2023-03-18T04:08:58.143Z,21.32
2023-03-18T04:09:58.202Z,21.37
2023-03-18T04:10:58.281Z,21.40
2023-03-18T04:11:58.306Z,21.37
2023-03-18T04:12:58.404Z,21.38
2023-03-18T04:13:58.451Z,21.37
2023-03-18T04:14:58.474Z,21.37
2023-03-18T04:15:58.550Z,21.39
2023-03-18T04:16:58.501Z,21.38
2023-03-18T04:19:58.473Z,21.37
2023-03-18T04:20:58.535Z,21.37
2023-03-18T04:21:58.609Z,21.41
2023-03-18T04:22:58.694Z,21.35
2023-03-18T04:23:58.719Z,21.37
2023-03-18T04:24:58.799Z,21.40
2023-03-18T04:25:58.847Z,21.37
2023-03-18T04:26:58.903Z,21.38
2023-03-18T04:27:58.957Z,21.37
2023-03-18T04:28:59.010Z,21.32
2023-03-18T04:29:59.093Z,21.35
2023-03-18T04:30:59.089Z,21.43
2023-03-18T04:31:59.113Z,21.35
2023-03-18T04:32:59.378Z,21.28
2023-03-18T04:34:59.298Z,21.38
2023-03-18T04:35:59.393Z,21.40
2023-03-18T04:36:59.429Z,21.37
2023-03-18T04:37:59.460Z,21.35
2023-03-18T04:38:59.511Z,21.40
2023-03-18T04:42:59.778Z,21.39
2023-03-18T04:43:59.843Z,21.34
2023-03-18T04:44:59.865Z,21.31
2023-03-18T04:45:59.939Z,21.37
2023-03-18T04:47:00.051Z,21.37
2023-03-18T04:48:00.041Z,21.43
2023-03-18T04:49:00.117Z,21.34
2023-03-18T04:50:00.169Z,21.40
2023-03-18T04:51:00.226Z,21.32
2023-03-18T04:52:00.313Z,21.37
2023-03-18T04:53:00.348Z,21.34
2023-03-18T04:54:00.398Z,21.35
2023-03-18T04:55:00.461Z,21.32
2023-03-18T04:56:00.503Z,21.38
2023-03-18T04:57:00.559Z,21.37
2023-03-18T04:58:00.664Z,21.34
2023-03-18T04:59:00.732Z,21.40
2023-03-18T05:00:00.763Z,21.37
2023-03-18T05:01:00.836Z,21.34
2023-03-18T05:02:00.917Z,21.43
2023-03-18T05:03:00.925Z,21.38
2023-03-18T05:04:01.031Z,21.35
2023-03-18T05:05:01.033Z,21.35
2023-03-18T05:06:01.072Z,21.37
2023-03-18T05:07:01.167Z,21.43
2023-03-18T05:08:01.183Z,21.35
2023-03-18T05:09:01.223Z,21.38
2023-03-18T05:10:01.297Z,21.35
2023-03-18T05:11:01.370Z,21.35
2023-03-18T05:12:01.397Z,21.35
2023-03-18T05:13:01.456Z,21.35
2023-03-18T07:17:05.735Z,21.17
2023-03-18T07:18:05.779Z,21.10
2023-03-18T07:19:05.842Z,21.14
2023-03-18T07:20:05.918Z,21.11
2023-03-18T07:21:05.918Z,21.14
2023-03-18T07:22:05.922Z,21.11
2023-03-18T07:23:05.986Z,21.07
2023-03-18T07:24:05.987Z,21.10
2023-03-18T07:25:06.225Z,21.08
2023-03-18T07:26:05.996Z,21.07
2023-03-18T07:27:05.998Z,21.13
2023-03-18T07:28:06.011Z,21.10
2023-03-18T07:29:05.977Z,21.05
2023-03-18T07:30:05.987Z,21.03
2023-03-18T07:31:05.999Z,21.03
2023-03-18T07:32:05.998Z,21.03
2023-03-18T07:33:06.107Z,21.05
2023-03-18T07:34:05.995Z,21.05
2023-03-18T07:35:06.001Z,20.97
2023-03-18T07:36:06.076Z,20.98
2023-03-18T07:37:05.968Z,20.95
2023-03-18T07:38:05.985Z,20.90
2023-03-18T07:39:05.959Z,20.95
2023-03-18T07:40:05.995Z,20.92
2023-03-18T07:41:06.004Z,20.89
2023-03-18T07:42:06.046Z,20.92
2023-03-18T07:43:06.056Z,20.92
2023-03-18T07:44:06.123Z,20.85
2023-03-18T07:45:06.146Z,20.85
2023-03-18T07:46:06.236Z,20.79
2023-03-18T07:47:06.225Z,20.84
2023-03-18T07:48:06.204Z,20.77
2023-03-18T07:49:06.246Z,20.78
2023-03-18T07:50:06.269Z,20.76
2023-03-18T07:51:06.318Z,20.70
2023-03-18T07:52:06.345Z,20.69
2023-03-18T07:53:06.377Z,20.78
2023-03-18T07:54:06.394Z,20.70
2023-03-18T07:55:06.403Z,20.75
2023-03-18T07:56:06.435Z,20.70
2023-03-18T07:57:06.524Z,20.67
2023-03-18T07:58:06.537Z,20.65
2023-03-18T07:59:06.530Z,20.67
2023-03-18T08:00:06.538Z,20.63
2023-03-18T08:01:06.568Z,20.65
2023-03-18T08:02:06.592Z,20.65
2023-03-18T08:03:06.643Z,20.65
2023-03-18T08:04:06.773Z,20.68
2023-03-18T08:05:06.844Z,20.63
2023-03-18T08:06:06.771Z,20.65
2023-03-18T08:07:06.847Z,20.65
2023-03-18T08:08:06.887Z,20.62
2023-03-18T08:09:06.972Z,20.60
2023-03-18T08:10:06.976Z,20.57
2023-03-18T08:11:06.987Z,20.60
2023-03-18T08:12:07.238Z,20.63
2023-03-18T08:13:07.088Z,20.65
2023-03-18T08:14:07.123Z,20.63
2023-03-18T08:15:07.110Z,20.63
2023-03-18T08:16:07.281Z,20.68
2023-03-18T08:17:07.160Z,20.68
2023-03-18T08:18:09.238Z,20.65
2023-03-18T08:19:07.223Z,20.66
2023-03-18T08:20:07.259Z,20.71
2023-03-18T08:21:08.011Z,20.72
2023-03-18T08:22:07.297Z,20.71
2023-03-18T08:23:07.308Z,20.68
2023-03-18T08:24:07.352Z,20.68
2023-03-18T08:25:07.362Z,20.71
2023-03-18T08:26:07.421Z,20.70
2023-03-18T08:27:07.481Z,20.70
2023-03-18T08:28:07.595Z,20.68
2023-03-18T08:29:07.627Z,20.70
2023-03-18T08:30:07.669Z,20.65
2023-03-18T08:31:07.756Z,20.66
2023-03-18T08:32:07.794Z,20.65
2023-03-18T08:33:07.932Z,20.64
2023-03-18T08:34:07.935Z,20.64
2023-03-18T08:35:08.005Z,20.67
2023-03-18T08:36:08.091Z,20.70
2023-03-18T08:37:08.118Z,20.70
2023-03-18T08:38:08.147Z,20.67
2023-03-18T08:39:08.246Z,20.61
2023-03-18T08:40:08.288Z,20.62
2023-03-18T08:41:08.362Z,20.62
2023-03-18T08:42:08.372Z,20.66
2023-03-18T08:43:08.452Z,20.60
2023-03-18T08:44:08.497Z,20.63
2023-03-18T08:45:08.560Z,20.55
2023-03-18T08:46:08.709Z,20.58
2023-03-18T08:47:08.700Z,20.58
2023-03-18T08:48:08.760Z,20.57
2023-03-18T08:49:08.779Z,20.57
2023-03-18T08:50:08.831Z,20.55
2023-03-18T08:51:08.832Z,20.57
2023-03-18T08:52:08.934Z,20.53
2023-03-18T08:53:08.957Z,20.56
2023-03-18T08:54:09.025Z,20.53
2023-03-18T08:55:09.073Z,20.53
2023-03-18T08:56:09.131Z,20.48
2023-03-18T08:57:09.182Z,20.51
2023-03-18T08:58:09.224Z,20.51
2023-03-18T08:59:09.277Z,20.48
2023-03-18T09:00:09.343Z,20.47
2023-03-18T09:01:11.844Z,20.45
2023-03-18T09:02:09.576Z,20.43
2023-03-18T09:03:09.672Z,20.52
2023-03-18T09:04:09.696Z,20.47
2023-03-18T09:05:09.711Z,20.52
2023-03-18T09:06:09.768Z,20.44
2023-03-18T09:07:09.813Z,20.50
2023-03-18T09:08:09.872Z,20.45
2023-03-18T09:09:09.931Z,20.46
2023-03-18T09:10:09.953Z,20.46
2023-03-18T09:11:10.005Z,20.41
2023-03-18T09:12:10.052Z,20.46
2023-03-18T09:13:10.113Z,20.46
2023-03-18T09:14:10.154Z,20.49
2023-03-18T09:15:10.227Z,20.44
2023-03-18T09:16:10.263Z,20.44
2023-03-18T09:17:10.290Z,20.46
2023-03-18T09:18:12.375Z,20.44
2023-03-18T09:19:10.377Z,20.50
2023-03-18T09:21:10.482Z,20.47
2023-03-18T09:22:10.520Z,20.44
2023-03-18T09:23:10.557Z,20.47
2023-03-18T09:24:10.631Z,20.50
2023-03-18T09:25:10.776Z,20.44
2023-03-18T09:26:10.719Z,20.47
2023-03-18T09:27:10.753Z,20.47
2023-03-18T09:28:10.810Z,20.44
2023-03-18T09:29:10.864Z,20.50
2023-03-18T09:30:10.906Z,20.47
2023-03-18T09:31:11.037Z,20.50
2023-03-18T09:32:10.985Z,20.48
2023-03-18T09:33:11.082Z,20.49
2023-03-18T09:34:11.004Z,20.43
2023-03-18T09:35:13.149Z,20.46
2023-03-18T09:36:11.062Z,20.42
2023-03-18T09:37:11.032Z,20.45
2023-03-18T09:38:11.005Z,20.39
2023-03-18T09:39:11.017Z,20.42
2023-03-18T09:40:11.069Z,20.47
2023-03-18T09:41:11.063Z,20.39
2023-03-18T09:42:11.066Z,20.41
2023-03-18T09:43:11.104Z,20.39
2023-03-18T09:44:11.119Z,20.44
2023-03-18T09:45:11.120Z,20.47
2023-03-18T09:46:11.259Z,20.47
2023-03-18T09:47:11.268Z,20.40
2023-03-18T09:48:11.119Z,20.42
2023-03-18T09:49:11.146Z,20.41
2023-03-18T09:50:11.145Z,20.42
2023-03-18T09:51:11.182Z,20.41
2023-03-18T09:52:11.157Z,20.47
2023-03-18T09:53:11.173Z,20.41
2023-03-18T09:54:11.196Z,20.42
2023-03-18T09:55:11.181Z,20.44
2023-03-18T09:56:11.231Z,20.43
2023-03-18T09:57:11.240Z,20.35
2023-03-18T09:58:11.266Z,20.36
2023-03-18T09:59:11.285Z,20.44
2023-03-18T10:00:11.394Z,20.37
2023-03-18T10:01:11.454Z,20.38
2023-03-18T10:02:11.480Z,20.39
2023-03-18T10:03:11.519Z,20.42
2023-03-18T10:04:11.639Z,20.39
2023-03-18T10:05:11.637Z,20.37
2023-03-18T10:06:11.696Z,20.34
2023-03-18T10:07:11.737Z,20.32
2023-03-18T10:09:11.902Z,20.36
2023-03-18T10:10:11.956Z,20.31
2023-03-18T10:11:11.951Z,20.30
2023-03-18T10:12:11.956Z,20.31
2023-03-18T10:13:12.026Z,20.30
2023-03-18T10:14:12.084Z,20.39
2023-03-18T10:15:12.142Z,20.27
2023-03-18T10:16:12.270Z,20.30
2023-03-18T10:17:12.265Z,20.33
2023-03-18T10:18:12.303Z,20.30
2023-03-18T10:19:12.383Z,20.29
2023-03-18T10:20:14.913Z,20.30
2023-03-18T10:21:12.409Z,20.33
2023-03-18T10:22:12.436Z,20.30
2023-03-18T10:23:12.446Z,20.29
2023-03-18T10:24:12.458Z,20.30
2023-03-18T10:25:12.418Z,20.32
2023-03-18T10:26:12.397Z,20.29
2023-03-18T10:27:12.382Z,20.26
2023-03-18T10:28:12.373Z,20.30
2023-03-18T10:29:12.385Z,20.30
2023-03-18T10:30:12.372Z,20.23
2023-03-18T10:31:12.479Z,20.23
2023-03-18T10:32:12.354Z,20.32
2023-03-18T10:33:12.417Z,20.30
2023-03-18T10:34:12.330Z,20.27
2023-03-18T10:35:12.326Z,20.34
2023-03-18T10:36:12.405Z,20.24
2023-03-18T10:37:12.302Z,20.31
2023-03-18T10:38:12.322Z,20.26
2023-03-18T10:39:12.313Z,20.26
2023-03-18T10:40:12.324Z,20.25
2023-03-18T10:41:12.285Z,20.22
2023-03-18T10:42:12.289Z,20.22
2023-03-18T10:43:12.273Z,20.27
2023-03-18T10:44:12.272Z,20.29
2023-03-18T10:45:12.294Z,20.23
2023-03-18T10:46:12.347Z,20.25
2023-03-18T10:47:12.427Z,20.23
2023-03-18T10:48:12.270Z,20.28
2023-03-18T10:49:12.238Z,20.23
2023-03-18T10:50:12.221Z,20.25
2023-03-18T10:51:12.213Z,20.27
2023-03-18T10:52:12.248Z,20.25
2023-03-18T10:53:12.244Z,20.24
2023-03-18T10:54:12.239Z,20.25
2023-03-18T10:55:12.221Z,20.27
2023-03-18T10:56:12.187Z,20.24
2023-03-18T10:57:12.169Z,20.22
2023-03-18T10:58:12.182Z,20.24
2023-03-18T10:59:12.180Z,20.28
2023-03-18T11:00:12.193Z,20.24
2023-03-18T11:01:12.164Z,20.22
2023-03-18T11:02:12.272Z,20.25
2023-03-18T11:03:12.245Z,20.27
2023-03-18T11:04:12.128Z,20.24
2023-03-18T11:05:12.121Z,20.22
2023-03-18T11:06:12.128Z,20.25
2023-03-18T11:07:12.118Z,20.21
2023-03-18T11:08:12.126Z,20.24
2023-03-18T11:09:12.111Z,20.27
2023-03-18T11:10:12.081Z,20.25
2023-03-18T11:11:12.086Z,20.28
2023-03-18T11:12:12.078Z,20.30
2023-03-18T11:13:12.082Z,20.25
2023-03-18T11:14:12.094Z,20.30
2023-03-18T11:15:12.107Z,20.33
2023-03-18T11:16:12.134Z,20.28
2023-03-18T11:17:12.070Z,20.33
2023-03-18T11:18:12.036Z,20.31
2023-03-18T11:19:12.038Z,20.31
2023-03-18T11:20:12.033Z,20.33
2023-03-18T11:21:12.036Z,20.31
2023-03-18T11:22:12.006Z,20.31
2023-03-18T11:23:11.997Z,20.38
2023-03-18T11:24:11.976Z,20.34
2023-03-18T11:25:11.986Z,20.39
2023-03-18T11:26:12.017Z,20.31
2023-03-18T11:27:11.946Z,20.34
2023-03-18T11:28:11.970Z,20.40
2023-03-18T11:29:11.976Z,20.39
2023-03-18T11:30:13.194Z,20.40
2023-03-18T11:31:11.956Z,20.40
2023-03-18T11:32:11.965Z,20.45
2023-03-18T11:33:12.080Z,20.47
2023-03-18T11:34:11.941Z,20.45
2023-03-18T11:35:11.907Z,20.47
2023-03-18T11:36:11.918Z,20.43
2023-03-18T11:37:11.926Z,20.45
2023-03-18T11:38:11.916Z,20.47
2023-03-18T11:39:11.917Z,20.42
2023-03-18T11:40:11.913Z,20.45
2023-03-18T11:41:11.893Z,20.47
2023-03-18T11:42:11.853Z,20.44
2023-03-18T11:43:11.880Z,20.44
2023-03-18T11:44:11.868Z,20.45
2023-03-18T11:45:11.855Z,20.45
2023-03-18T11:46:11.868Z,20.47
2023-03-18T11:47:11.853Z,20.51
2023-03-18T11:48:11.822Z,20.44
2023-03-18T11:49:11.806Z,20.44
2023-03-18T11:50:11.828Z,20.53
2023-03-18T11:51:11.834Z,20.50
2023-03-18T11:52:11.800Z,20.50
2023-03-18T11:53:11.830Z,20.50
2023-03-18T11:54:11.798Z,20.50
2023-03-18T11:55:11.805Z,20.54
2023-03-18T11:56:11.783Z,20.49
2023-03-18T11:57:11.752Z,20.57
2023-03-18T11:58:11.785Z,20.53
2023-03-18T11:59:11.762Z,20.51
2023-03-18T12:00:11.745Z,20.48
2023-03-18T12:01:11.748Z,20.50
2023-03-18T12:02:11.762Z,20.48
2023-03-18T12:03:11.864Z,20.51
2023-03-18T12:04:11.725Z,20.53
2023-03-18T12:05:11.758Z,20.45
2023-03-18T12:06:11.708Z,20.54
2023-03-18T12:07:11.691Z,20.54
2023-03-18T12:08:12.004Z,20.53
2023-03-18T12:09:11.732Z,20.53
2023-03-18T12:10:11.682Z,20.51
2023-03-18T12:11:11.679Z,20.54
2023-03-18T12:12:11.651Z,20.53
2023-03-18T12:13:11.690Z,20.54
2023-03-18T12:14:11.670Z,20.57
2023-03-18T12:15:11.647Z,20.53
2023-03-18T12:16:11.703Z,20.53
2023-03-18T12:17:11.621Z,20.50
2023-03-18T12:18:11.620Z,20.56
2023-03-18T12:19:11.675Z,20.56
2023-03-18T12:20:11.625Z,20.56
2023-03-18T12:21:11.606Z,20.56
2023-03-18T12:22:11.623Z,20.60
2023-03-18T12:23:11.591Z,20.57
2023-03-18T12:24:11.607Z,20.59
2023-03-18T12:25:11.608Z,20.60
2023-03-18T12:26:11.586Z,20.57
2023-03-18T12:27:11.590Z,20.63
2023-03-18T12:28:11.558Z,20.62
2023-03-18T12:29:11.588Z,20.57
2023-03-18T12:30:11.578Z,20.63
2023-03-18T12:31:11.579Z,20.59
2023-03-18T12:32:11.551Z,20.62
2023-03-18T12:33:11.549Z,20.57
2023-03-18T12:34:14.018Z,20.56
2023-03-18T12:35:11.503Z,20.63
2023-03-18T12:36:11.511Z,20.59
2023-03-18T12:37:11.521Z,20.60
2023-03-18T12:38:11.503Z,20.60
2023-03-18T12:39:11.519Z,20.60
2023-03-18T12:40:11.509Z,20.66
2023-03-18T12:41:11.485Z,20.68
2023-03-18T12:42:11.488Z,20.66
2023-03-18T12:43:11.458Z,20.68
2023-03-18T12:44:11.477Z,20.65
2023-03-18T12:45:11.481Z,20.65
2023-03-18T12:46:11.461Z,20.67
2023-03-18T12:47:11.447Z,20.72
2023-03-18T12:48:11.462Z,20.63
2023-03-18T12:49:11.431Z,20.69
2023-03-18T12:50:11.433Z,20.71
2023-03-18T12:51:11.437Z,20.69
2023-03-18T12:52:11.427Z,20.70
2023-03-18T12:53:11.401Z,20.66
2023-03-18T12:54:11.420Z,20.69
2023-03-18T12:55:11.410Z,20.67
2023-03-18T12:56:11.394Z,20.73
2023-03-18T12:57:11.376Z,20.75
2023-03-18T12:58:11.372Z,20.72
2023-03-18T12:59:11.355Z,20.73
2023-03-18T13:00:11.392Z,20.78
2023-03-18T13:01:11.398Z,20.79
2023-03-18T13:02:11.375Z,20.75
2023-03-18T13:03:11.320Z,20.76
2023-03-18T13:04:11.345Z,20.75
2023-03-18T13:05:11.304Z,20.79
2023-03-18T13:06:11.307Z,20.78
2023-03-18T13:07:11.328Z,20.82
2023-03-18T13:08:11.305Z,20.79
2023-03-18T13:09:11.292Z,20.82
2023-03-18T13:10:11.308Z,20.81
2023-03-18T13:11:12.318Z,20.79
2023-03-18T13:12:11.273Z,20.78
2023-03-18T13:13:11.288Z,20.77
2023-03-18T13:14:11.249Z,20.85
2023-03-18T13:15:11.232Z,20.82
2023-03-18T13:16:12.171Z,20.86
2023-03-18T13:17:11.242Z,20.85
2023-03-18T13:18:11.237Z,20.79
2023-03-18T13:19:11.260Z,20.85
2023-03-18T13:20:11.232Z,20.89
2023-03-18T13:21:11.190Z,20.86
2023-03-18T13:22:11.218Z,20.89
2023-03-18T13:23:11.200Z,20.89
2023-03-18T13:24:11.186Z,20.88
2023-03-18T13:25:12.825Z,20.92
2023-03-18T13:26:11.173Z,20.91
2023-03-18T13:27:11.177Z,20.89
2023-03-18T13:28:11.150Z,20.89
2023-03-18T13:29:11.167Z,20.89
2023-03-18T13:30:11.182Z,20.98
2023-03-18T13:31:11.222Z,20.97
2023-03-18T13:32:11.142Z,20.92
2023-03-18T13:33:11.258Z,20.92
2023-03-18T13:34:11.148Z,20.90
2023-03-18T13:35:13.256Z,20.95
2023-03-18T13:36:11.163Z,20.96
2023-03-18T13:37:11.137Z,20.96
2023-03-18T13:38:11.101Z,20.95
2023-03-18T13:39:11.060Z,20.93
2023-03-18T13:40:11.065Z,20.98
2023-03-18T13:41:11.136Z,20.99
2023-03-18T13:42:11.201Z,20.99
2023-03-18T13:43:11.261Z,21.01
2023-03-18T13:44:11.344Z,21.04
2023-03-18T13:45:11.350Z,21.04
2023-03-18T13:46:11.436Z,21.05
2023-03-18T13:47:11.454Z,21.00
2023-03-18T13:48:11.499Z,21.00
2023-03-18T13:49:11.557Z,21.02
2023-03-18T13:50:11.582Z,21.08
2023-03-18T13:51:11.633Z,21.06
2023-03-18T13:52:11.665Z,21.05
2023-03-18T13:53:11.690Z,21.08
2023-03-18T13:54:11.737Z,21.06
2023-03-18T13:55:11.812Z,21.09
2023-03-18T13:56:11.842Z,21.08
2023-03-18T13:57:11.889Z,21.08
2023-03-18T13:58:11.932Z,21.12
2023-03-18T13:59:11.969Z,21.08
2023-03-18T14:00:13.882Z,21.12
2023-03-18T14:01:12.303Z,21.12
2023-03-18T14:02:12.310Z,21.10
2023-03-18T14:03:12.382Z,21.10
2023-03-18T14:04:12.330Z,21.10
2023-03-18T14:05:12.357Z,21.15
2023-03-18T14:06:13.957Z,21.16
2023-03-18T14:07:12.379Z,21.15
2023-03-18T14:08:12.377Z,21.13
2023-03-18T14:09:12.372Z,21.18
2023-03-18T14:10:19.266Z,21.16
2023-03-18T14:11:13.369Z,21.15
2023-03-18T14:12:12.364Z,21.19
2023-03-18T14:13:12.361Z,21.17
2023-03-18T14:14:12.348Z,21.19
2023-03-18T14:15:12.326Z,21.19
2023-03-18T14:16:12.313Z,21.16
2023-03-18T14:17:12.309Z,21.22
2023-03-18T14:18:12.296Z,21.20
2023-03-18T14:19:12.317Z,21.24
2023-03-18T14:20:12.306Z,21.20
2023-03-18T14:21:12.269Z,21.23
2023-03-18T14:22:12.252Z,21.17
2023-03-18T14:23:12.286Z,21.14
2023-03-18T14:24:12.268Z,21.16
2023-03-18T14:25:12.246Z,21.19
2023-03-18T14:26:12.230Z,21.20
2023-03-18T14:27:12.218Z,21.20
2023-03-18T14:28:12.212Z,21.20
2023-03-18T14:29:12.238Z,21.25
2023-03-18T14:30:12.221Z,21.20
2023-03-18T14:31:12.237Z,21.20
2023-03-18T14:32:12.199Z,21.26
2023-03-18T14:33:12.262Z,21.25
2023-03-18T14:34:12.200Z,21.21
2023-03-18T14:35:12.172Z,21.26
2023-03-18T14:36:12.184Z,21.26
2023-03-18T14:37:12.158Z,21.23
2023-03-18T14:38:12.165Z,21.23
2023-03-18T14:39:12.169Z,21.21
2023-03-18T14:40:12.155Z,21.26
2023-03-18T14:41:12.217Z,21.23
2023-03-18T14:42:12.261Z,21.27
2023-03-18T14:43:12.288Z,21.23
2023-03-18T14:44:12.353Z,21.29
2023-03-18T14:45:12.337Z,21.29
2023-03-18T14:46:12.379Z,21.26
2023-03-18T14:47:12.353Z,21.32
2023-03-18T14:48:12.338Z,21.30
2023-03-18T14:49:12.354Z,21.32
2023-03-18T14:50:12.345Z,21.24
2023-03-18T14:51:12.312Z,21.32
2023-03-18T14:52:12.328Z,21.32
2023-03-18T14:53:12.335Z,21.30
2023-03-18T14:54:12.373Z,21.30
2023-03-18T14:55:12.404Z,21.32
2023-03-18T14:56:12.490Z,21.39
2023-03-18T14:57:12.493Z,21.30
2023-03-18T14:58:12.562Z,21.32
2023-03-18T14:59:12.571Z,21.36
2023-03-18T15:00:12.640Z,21.37
2023-03-18T15:01:12.691Z,21.35
2023-03-18T15:02:12.729Z,21.32
2023-03-18T15:03:12.763Z,21.33
2023-03-18T15:04:12.806Z,21.36
2023-03-18T15:05:12.760Z,21.37